Time;durP1;ratioP1;P1;durP2;ratioP2;P2;SDS_P1;SDS_P2;PMS_P1;PMS_P2;Temp;Humidity;BMP_temperature;BMP_pressure;BME280_temperature;BME280_humidity;BME280_pressure;Samples;Min_cycle;Max_cycle;Signal;HPM_P1;HPM_P2
2021/12/08 00:00:56;;;;;;;;;4.50;4.50;;;;;4.35;100.00;98971.94;5023343;28;11218;-70
2021/12/08 00:03:24;;;;;;;;;4.50;4.50;;;;;4.35;100.00;98977.28;5029717;28;11205;-70
2021/12/08 00:05:51;;;;;;;;;5.50;5.00;;;;;4.34;100.00;98970.28;5025155;28;11060;-70
2021/12/08 00:08:20;;;;;;;;;4.00;4.00;;;;;4.41;100.00;98973.81;5038420;28;11149;-69
2021/12/08 00:13:01;;;;;;;;;2.00;2.00;;;;;4.42;100.00;98988.88;5028310;28;11042;-71
2021/12/08 00:13:36;;;;;;;;;8.25;7.00;;;;;4.42;100.00;98983.50;5028524;28;11119;-70
2021/12/08 00:16:12;;;;;;;;;5.00;3.25;;;;;4.44;100.00;98981.47;5026280;28;13368;-70
2021/12/08 00:18:45;;;;;;;;;4.00;3.00;;;;;4.41;100.00;98981.03;5029158;28;11089;-70
2021/12/08 00:21:12;;;;;;;;;5.00;4.00;;;;;4.45;100.00;98985.78;5028315;28;10956;-70
2021/12/08 00:23:39;;;;;;;;;7.25;6.00;;;;;4.50;100.00;98982.56;5021972;28;11081;-69
2021/12/08 00:26:06;;;;;;;;;6.00;6.00;;;;;4.54;100.00;98981.97;5020621;28;11305;-70
2021/12/08 00:28:33;;;;;;;;;8.00;5.00;;;;;4.54;100.00;98981.97;5016667;28;11649;-69
2021/12/08 00:31:03;;;;;;;;;4.50;4.25;;;;;4.57;100.00;98989.59;5009764;28;11162;-69
2021/12/08 00:33:30;;;;;;;;;9.25;8.00;;;;;4.59;100.00;98968.81;5024028;28;11271;-70
2021/12/08 00:36:00;;;;;;;;;3.25;3.25;;;;;4.61;100.00;98969.44;5023108;28;11169;-70
2021/12/08 00:38:26;;;;;;;;;5.75;5.75;;;;;4.62;100.00;98957.69;5027240;23;11229;-69
2021/12/08 00:40:53;;;;;;;;;8.00;4.00;;;;;4.61;100.00;98966.75;5017217;28;11625;-69
2021/12/08 00:43:22;;;;;;;;;7.00;5.25;;;;;4.62;100.00;98963.03;4996320;28;11140;-68
2021/12/08 00:45:49;;;;;;;;;9.50;8.00;;;;;4.63;100.00;98950.47;5019214;28;11466;-69
2021/12/08 00:48:16;;;;;;;;;5.00;5.00;;;;;4.66;100.00;98943.88;4996544;28;11275;-67
2021/12/08 00:50:43;;;;;;;;;5.50;4.00;;;;;4.67;100.00;98949.03;4990350;28;11043;-70
2021/12/08 00:53:10;;;;;;;;;10.50;7.25;;;;;4.72;100.00;98953.84;4990216;28;11072;-70
2021/12/08 00:55:38;;;;;;;;;5.00;5.00;;;;;4.75;100.00;98945.41;4997589;28;11144;-70
2021/12/08 00:58:05;;;;;;;;;6.50;5.00;;;;;4.78;100.00;98955.72;4982368;28;11105;-70
2021/12/08 01:00:41;;;;;;;;;5.75;5.00;;;;;4.80;100.00;98959.84;4997276;28;11429;-70
2021/12/08 01:03:10;;;;;;;;;4.00;4.00;;;;;4.80;100.00;98957.16;5008608;28;11205;-70
2021/12/08 01:05:41;;;;;;;;;4.00;4.00;;;;;4.83;100.00;98966.66;5001718;28;11156;-70
2021/12/08 01:08:08;;;;;;;;;7.00;6.00;;;;;4.87;100.00;98978.66;5000996;28;11085;-71
2021/12/08 01:10:35;;;;;;;;;5.25;5.25;;;;;4.90;100.00;98979.06;5009952;28;11186;-70
2021/12/08 01:13:07;;;;;;;;;6.00;4.00;;;;;4.92;100.00;98985.06;4993057;28;11103;-69
2021/12/08 01:15:35;;;;;;;;;8.25;7.25;;;;;4.95;100.00;98981.16;4999113;28;11183;-70
2021/12/08 01:18:02;;;;;;;;;11.00;7.00;;;;;4.95;100.00;98986.53;5001163;28;11064;-70
2021/12/08 01:20:29;;;;;;;;;10.25;7.50;;;;;4.98;100.00;98977.28;4995606;28;11151;-70
2021/12/08 01:22:56;;;;;;;;;7.75;6.00;;;;;4.98;100.00;98975.41;4988592;28;11142;-69
2021/12/08 01:25:23;;;;;;;;;8.50;8.00;;;;;5.00;100.00;98980.59;4989831;28;11035;-70
2021/12/08 01:27:50;;;;;;;;;5.75;5.50;;;;;5.03;100.00;98975.66;4991983;28;11263;-69
2021/12/08 01:30:16;;;;;;;;;8.50;8.50;;;;;5.05;100.00;98987.00;4992062;28;11826;-69
2021/12/08 01:32:43;;;;;;;;;10.75;7.00;;;;;5.07;100.00;98989.47;5009516;28;11252;-69
2021/12/08 01:35:10;;;;;;;;;8.50;7.50;;;;;5.09;100.00;98992.78;5000696;28;11123;-70
2021/12/08 01:37:38;;;;;;;;;6.50;6.50;;;;;5.08;100.00;98996.50;4991402;28;11236;-70
2021/12/08 01:40:07;;;;;;;;;7.25;7.25;;;;;5.12;100.00;99000.44;4995627;28;11382;-70
2021/12/08 01:42:41;;;;;;;;;9.75;9.00;;;;;5.14;100.00;99009.94;5004719;28;11099;-71
2021/12/08 01:47:57;;;;;;;;;8.75;7.50;;;;;5.16;100.00;99013.25;5002081;28;11080;-70
2021/12/08 01:50:24;;;;;;;;;9.25;7.50;;;;;5.15;100.00;99014.28;4993260;28;11708;-70
2021/12/08 01:52:51;;;;;;;;;7.75;7.00;;;;;5.17;100.00;99022.94;4993023;28;11203;-69
2021/12/08 01:55:18;;;;;;;;;14.75;10.25;;;;;5.19;100.00;99020.06;4994277;28;11075;-69
2021/12/08 01:57:44;;;;;;;;;7.00;7.00;;;;;5.18;100.00;99027.28;5001280;28;11485;-70
2021/12/08 02:00:41;;;;;;;;;10.00;10.00;;;;;5.17;100.00;99009.53;5001589;28;11134;-70
2021/12/08 02:03:08;;;;;;;;;10.50;10.50;;;;;5.21;100.00;99018.03;4989723;28;11246;-69
2021/12/08 02:05:35;;;;;;;;;9.00;7.00;;;;;5.19;100.00;99007.47;4999549;28;11076;-69
2021/12/08 02:08:04;;;;;;;;;5.25;5.25;;;;;5.21;100.00;99010.81;5010352;28;11086;-69
2021/12/08 02:10:31;;;;;;;;;10.50;9.75;;;;;5.26;100.00;99020.94;4988777;28;11042;-70
2021/12/08 02:12:58;;;;;;;;;6.75;6.75;;;;;5.26;100.00;99023.63;4992565;28;11123;-67
2021/12/08 02:15:25;;;;;;;;;10.00;10.00;;;;;5.25;100.00;99016.59;4998205;28;11216;-70
2021/12/08 02:17:54;;;;;;;;;7.00;7.00;;;;;5.31;100.00;99023.00;5003469;28;11174;-70
2021/12/08 02:20:25;;;;;;;;;4.50;4.50;;;;;5.30;100.00;99024.03;5005482;28;11027;-70
2021/12/08 02:22:51;;;;;;;;;9.75;7.50;;;;;5.33;100.00;99029.00;4994567;28;10955;-69
2021/12/08 02:25:21;;;;;;;;;7.25;7.25;;;;;5.34;100.00;99034.16;4992233;28;11158;-69
2021/12/08 02:27:48;;;;;;;;;6.50;3.75;;;;;5.36;100.00;99034.81;4991819;28;11102;-70
2021/12/08 02:31:07;;;;;;;;;7.50;7.50;;;;;5.36;100.00;99040.16;4990896;28;10957;-70
2021/12/08 02:49:24;;;;;;;;;10.25;6.75;;;;;5.41;100.00;99050.28;5006980;28;10973;-68
2021/12/08 02:51:51;;;;;;;;;11.00;8.25;;;;;5.38;100.00;99045.34;5000437;28;10911;-68
2021/12/08 02:54:19;;;;;;;;;5.25;2.00;;;;;5.41;100.00;99043.06;4996979;28;11154;-71
2021/12/08 02:56:46;;;;;;;;;8.50;7.00;;;;;5.42;100.00;99051.94;4991901;28;11141;-68
2021/12/08 02:59:13;;;;;;;;;8.50;7.00;;;;;5.41;100.00;99040.38;4996927;28;11256;-67
2021/12/08 03:01:41;;;;;;;;;7.25;7.00;;;;;5.40;100.00;99036.06;4996009;28;10927;-70
2021/12/08 03:04:09;;;;;;;;;11.75;11.00;;;;;5.45;100.00;99040.81;4999962;28;11078;-69
2021/12/08 03:06:36;;;;;;;;;8.00;6.00;;;;;5.44;100.00;99047.22;4992501;28;11117;-68
2021/12/08 03:09:05;;;;;;;;;10.75;7.50;;;;;5.45;100.00;99038.13;4993872;28;11006;-67
2021/12/08 03:11:33;;;;;;;;;13.00;11.00;;;;;5.46;100.00;99037.97;4979182;28;11515;-68
2021/12/08 03:14:05;;;;;;;;;16.75;13.50;;;;;5.48;100.00;99043.94;4992644;28;11748;-68
2021/12/08 03:16:34;;;;;;;;;10.75;10.75;;;;;5.50;100.00;99046.44;4991583;28;11013;-68
2021/12/08 03:19:02;;;;;;;;;12.50;12.50;;;;;5.51;100.00;99062.34;4990759;28;11381;-67
2021/12/08 03:21:31;;;;;;;;;9.50;8.50;;;;;5.51;100.00;99051.59;4990358;28;11202;-67
2021/12/08 03:26:43;;;;;;;;;8.50;8.25;;;;;5.55;100.00;99055.53;4991155;28;10933;-68
2021/12/08 03:29:21;;;;;;;;;9.25;6.50;;;;;5.51;100.00;99059.66;4999250;28;10843;-68
2021/12/08 03:31:51;;;;;;;;;11.75;9.00;;;;;5.53;100.00;99059.44;4993936;28;10994;-69
2021/12/08 03:34:20;;;;;;;;;13.00;12.00;;;;;5.53;100.00;99062.13;4990854;28;10947;-69
2021/12/08 03:36:47;;;;;;;;;9.50;7.00;;;;;5.52;100.00;99068.53;4996214;28;11122;-69
2021/12/08 03:39:14;;;;;;;;;8.75;8.75;;;;;5.51;100.00;99072.25;5006364;28;10968;-69
2021/12/08 03:41:40;;;;;;;;;14.00;11.00;;;;;5.50;100.00;99068.72;4991124;28;11842;-69
2021/12/08 03:44:07;;;;;;;;;6.50;6.50;;;;;5.51;100.00;99074.94;4989450;28;11186;-69
2021/12/08 03:46:39;;;;;;;;;8.00;5.75;;;;;5.47;100.00;99065.63;4997118;28;10985;-69
2021/12/08 03:49:10;;;;;;;;;5.00;5.00;;;;;5.44;100.00;99074.88;4997853;28;10980;-70
2021/12/08 03:51:38;;;;;;;;;4.75;4.75;;;;;5.46;100.00;99082.75;5001512;28;10929;-69
2021/12/08 03:54:05;;;;;;;;;4.25;4.00;;;;;5.45;100.00;99075.69;4997572;28;10790;-70
2021/12/08 03:56:32;;;;;;;;;1.00;1.00;;;;;5.46;100.00;99088.13;4994719;28;10771;-70
2021/12/08 03:59:00;;;;;;;;;5.25;5.25;;;;;5.47;100.00;99089.78;5003038;28;10936;-68
2021/12/08 04:01:26;;;;;;;;;3.00;2.25;;;;;5.50;100.00;99097.44;5000504;28;10799;-67
2021/12/08 04:03:54;;;;;;;;;3.00;2.00;;;;;5.49;100.00;99101.97;4992640;28;10832;-69
2021/12/08 04:06:32;;;;;;;;;2.25;2.00;;;;;5.49;100.00;99099.28;4996367;28;10863;-69
2021/12/08 04:09:01;;;;;;;;;1.00;1.00;;;;;5.51;100.00;99102.59;4998221;28;10758;-69
2021/12/08 04:11:27;;;;;;;;;1.00;1.00;;;;;5.51;100.00;99102.59;4994219;28;10763;-69
2021/12/08 04:14:01;;;;;;;;;2.00;2.00;;;;;5.52;100.00;99111.47;4997222;28;10671;-69
2021/12/08 04:16:32;;;;;;;;;5.75;2.00;;;;;5.53;100.00;99110.44;4990357;28;10814;-69
2021/12/08 04:19:00;;;;;;;;;5.75;2.00;;;;;5.54;100.00;99117.47;4992945;28;10937;-69
2021/12/08 04:21:28;;;;;;;;;3.00;1.50;;;;;5.52;100.00;99109.63;4994195;28;10970;-69
2021/12/08 04:23:55;;;;;;;;;2.75;2.75;;;;;5.52;100.00;99106.94;4994996;28;10685;-69
2021/12/08 04:26:30;;;;;;;;;4.00;4.00;;;;;5.54;100.00;99107.56;4996586;28;10765;-69
2021/12/08 04:28:57;;;;;;;;;5.75;1.75;;;;;5.53;100.00;99105.91;4994046;28;10780;-69
2021/12/08 04:31:31;;;;;;;;;5.50;5.50;;;;;5.51;100.00;99107.97;4995299;28;10943;-69
2021/12/08 04:34:03;;;;;;;;;4.00;3.00;;;;;5.50;100.00;99122.41;4997422;28;10887;-69
2021/12/08 04:36:40;;;;;;;;;6.00;5.00;;;;;5.44;99.96;99115.13;4989174;28;10933;-69
2021/12/08 04:39:13;;;;;;;;;3.50;3.50;;;;;5.42;100.00;99124.41;4988870;28;10772;-69
2021/12/08 04:41:42;;;;;;;;;7.00;2.75;;;;;5.40;99.74;99126.47;4994987;28;11539;-69
2021/12/08 04:44:26;;;;;;;;;4.00;4.00;;;;;5.43;99.87;99132.25;4995769;28;10933;-69
2021/12/08 04:50:20;;;;;;;;;3.00;3.00;;;;;5.44;99.50;99130.41;4991421;28;11468;-69
2021/12/08 04:54:01;;;;;;;;;4.50;2.00;;;;;5.45;99.17;99151.69;4997850;28;10849;-69
2021/12/08 05:09:32;;;;;;;;;3.50;2.00;;;;;5.37;97.43;99151.00;4996709;28;11574;-69
2021/12/08 05:12:17;;;;;;;;;5.00;2.00;;;;;5.37;97.13;99132.22;5001148;28;11673;-69
2021/12/08 05:14:59;;;;;;;;;2.25;2.25;;;;;5.37;96.76;99142.97;4994735;28;10812;-69
2021/12/08 05:17:31;;;;;;;;;1.50;1.50;;;;;5.38;95.85;99147.31;4991183;28;10899;-69
2021/12/08 05:20:04;;;;;;;;;8.75;3.00;;;;;5.38;95.61;99150.81;4994979;28;10763;-69
2021/12/08 05:22:37;;;;;;;;;2.50;2.50;;;;;5.37;95.25;99148.31;4991185;28;10755;-69
2021/12/08 05:25:08;;;;;;;;;5.50;4.00;;;;;5.36;94.75;99149.34;4992463;28;10826;-68
2021/12/08 05:27:43;;;;;;;;;1.25;1.25;;;;;5.36;95.08;99162.78;4992136;28;10710;-69
2021/12/08 05:30:15;;;;;;;;;3.50;3.50;;;;;5.34;94.85;99159.44;4994243;28;10830;-69
2021/12/08 05:32:42;;;;;;;;;3.50;1.00;;;;;5.35;94.76;99158.44;4994658;28;10870;-69
2021/12/08 05:35:11;;;;;;;;;1.00;1.00;;;;;5.34;94.80;99154.09;5001692;28;10773;-69
2021/12/08 05:37:38;;;;;;;;;1.25;1.00;;;;;5.31;95.17;99163.38;5003309;28;10606;-69
2021/12/08 05:40:10;;;;;;;;;1.00;1.00;;;;;5.30;95.38;99160.88;5000815;28;10746;-70
2021/12/08 05:42:37;;;;;;;;;4.00;2.00;;;;;5.25;95.65;99167.66;4993441;28;10591;-69
2021/12/08 05:45:10;;;;;;;;;2.50;1.75;;;;;5.24;95.17;99154.44;4992654;28;10760;-69
2021/12/08 05:47:40;;;;;;;;;4.00;3.00;;;;;5.20;94.85;99158.53;4993144;28;11414;-70
2021/12/08 05:50:09;;;;;;;;;1.75;1.25;;;;;5.14;95.05;99165.50;4997102;28;10742;-70
2021/12/08 05:52:35;;;;;;;;;2.00;2.00;;;;;5.13;95.06;99179.13;4992956;28;10933;-70
2021/12/08 05:55:04;;;;;;;;;0.00;0.00;;;;;5.09;95.10;99188.56;4995454;28;10748;-69
2021/12/08 05:57:36;;;;;;;;;4.00;4.00;;;;;5.05;95.07;99193.50;5002487;28;10747;-69
2021/12/08 06:00:17;;;;;;;;;2.50;2.50;;;;;5.06;94.91;99188.97;5012113;28;10834;-69
2021/12/08 06:02:45;;;;;;;;;2.00;2.00;;;;;5.02;95.08;99185.03;5000800;28;10695;-69
2021/12/08 06:05:14;;;;;;;;;1.50;1.00;;;;;4.93;95.14;99184.31;4992071;28;11642;-69
2021/12/08 06:07:42;;;;;;;;;2.00;1.00;;;;;4.90;95.28;99192.75;4999722;28;10823;-69
2021/12/08 06:10:19;;;;;;;;;2.25;1.75;;;;;4.88;95.52;99201.00;4993168;28;10962;-69
2021/12/08 06:12:49;;;;;;;;;4.00;4.00;;;;;4.86;95.48;99211.06;4993440;28;10838;-69
2021/12/08 06:15:17;;;;;;;;;2.00;2.00;;;;;4.87;95.38;99203.88;4992144;28;10906;-69
2021/12/08 06:17:44;;;;;;;;;3.50;2.00;;;;;4.80;95.62;99211.03;4999513;28;10971;-69
2021/12/08 06:20:13;;;;;;;;;2.75;1.75;;;;;4.80;95.27;99214.53;4999479;28;10924;-69
2021/12/08 06:22:41;;;;;;;;;1.00;1.00;;;;;4.81;95.20;99231.44;5004631;28;11664;-69
2021/12/08 06:25:09;;;;;;;;;3.50;2.00;;;;;4.80;94.61;99219.91;5000860;28;10936;-69
2021/12/08 06:27:36;;;;;;;;;1.50;1.00;;;;;4.80;94.35;99230.63;4997382;28;10990;-69
2021/12/08 06:30:09;;;;;;;;;0.00;0.00;;;;;4.79;94.39;99226.28;4993718;28;11053;-69
2021/12/08 06:32:35;;;;;;;;;2.00;2.00;;;;;4.80;94.19;99235.97;5003523;28;10750;-69
2021/12/08 06:35:07;;;;;;;;;3.00;2.00;;;;;4.79;94.20;99234.31;5000378;28;11585;-69
2021/12/08 06:37:39;;;;;;;;;1.00;1.00;;;;;4.73;93.63;99229.72;4998307;28;10790;-69
2021/12/08 06:40:24;;;;;;;;;6.50;4.00;;;;;4.75;93.55;99232.22;5002631;28;10910;-69
2021/12/08 06:42:55;;;;;;;;;2.00;2.00;;;;;4.74;93.57;99222.53;4991948;28;10828;-69
2021/12/08 06:45:26;;;;;;;;;0.50;0.50;;;;;4.72;93.30;99219.19;4976728;28;10958;-68
2021/12/08 06:47:54;;;;;;;;;2.50;1.75;;;;;4.67;93.75;99225.13;4991435;28;10742;-69
2021/12/08 06:50:46;;;;;;;;;1.75;1.75;;;;;4.69;93.74;99227.59;5002716;28;10819;-71
2021/12/08 06:53:13;;;;;;;;;1.00;1.00;;;;;4.62;93.47;99231.06;4988421;28;11562;-71
2021/12/08 06:55:51;;;;;;;;;1.00;1.00;;;;;4.60;93.06;99219.69;5007686;28;10885;-71
2021/12/08 06:58:26;;;;;;;;;0.00;0.00;;;;;4.62;92.94;99222.19;4970305;28;11005;-70
2021/12/08 07:01:21;;;;;;;;;6.25;2.00;;;;;4.56;92.62;99218.41;4971796;28;11002;-71
2021/12/08 07:07:20;;;;;;;;;1.00;1.00;;;;;4.51;93.40;99238.78;5007186;28;10815;-71
2021/12/08 07:09:37;;;;;;;;;2.50;2.00;;;;;4.49;93.35;99230.09;4970526;28;10920;-70
2021/12/08 07:12:11;;;;;;;;;1.00;1.00;;;;;4.48;93.09;99244.50;4982650;28;10956;-69
2021/12/08 07:14:40;;;;;;;;;0.00;0.00;;;;;4.46;92.95;99258.09;4991389;28;11838;-69
2021/12/08 07:17:10;;;;;;;;;2.00;1.25;;;;;4.45;92.88;99248.38;4990694;28;10919;-70
2021/12/08 07:19:45;;;;;;;;;0.75;0.50;;;;;4.43;93.00;99258.44;4985677;28;10996;-68
2021/12/08 07:22:26;;;;;;;;;2.50;1.00;;;;;4.42;92.85;99259.47;5000362;28;11042;-71
2021/12/08 07:24:55;;;;;;;;;0.00;0.00;;;;;4.43;92.79;99258.44;5005378;28;11109;-72
2021/12/08 07:27:27;;;;;;;;;0.75;0.75;;;;;4.36;92.66;99257.56;5009526;28;10935;-71
2021/12/08 07:29:58;;;;;;;;;0.00;0.00;;;;;4.41;93.16;99267.69;5008419;28;11093;-71
2021/12/08 07:32:32;;;;;;;;;2.00;2.00;;;;;4.41;93.30;99271.22;4989978;28;10972;-72
2021/12/08 07:35:09;;;;;;;;;0.00;0.00;;;;;5.01;95.00;99286.09;4993791;28;11088;-69
2021/12/08 07:37:35;;;;;;;;;2.75;1.00;;;;;4.66;91.73;99270.88;4985929;28;11679;-68
2021/12/08 07:40:10;;;;;;;;;3.50;1.25;;;;;4.56;91.79;99272.00;4989519;28;10980;-71
2021/12/08 07:42:54;;;;;;;;;1.00;1.00;;;;;4.48;92.09;99279.34;4989260;28;10897;-71
2021/12/08 07:45:25;;;;;;;;;1.25;1.25;;;;;4.45;92.56;99274.34;4985339;28;11640;-70
2021/12/08 07:47:54;;;;;;;;;1.00;1.00;;;;;4.43;92.41;99279.06;4984700;28;10914;-71
2021/12/08 07:50:41;;;;;;;;;1.00;1.00;;;;;4.42;92.63;99282.75;4983217;28;10981;-70
2021/12/08 07:53:10;;;;;;;;;0.75;0.00;;;;;4.41;92.46;99289.13;4989878;28;10975;-70
2021/12/08 07:55:41;;;;;;;;;1.00;1.00;;;;;4.39;92.78;99281.28;4991135;28;10908;-71
2021/12/08 07:58:10;;;;;;;;;1.00;1.00;;;;;4.40;92.79;99282.94;4983010;28;11610;-71
2021/12/08 08:00:45;;;;;;;;;3.00;0.25;;;;;4.33;92.80;99292.75;4987985;28;11023;-71
2021/12/08 08:03:12;;;;;;;;;3.50;0.00;;;;;4.41;93.05;99289.13;4992676;28;11069;-71
2021/12/08 08:05:41;;;;;;;;;0.75;0.75;;;;;4.36;92.55;99284.34;4985715;28;11047;-67
2021/12/08 08:08:10;;;;;;;;;1.50;1.50;;;;;4.41;93.03;99300.69;4981456;28;11124;-70
2021/12/08 08:10:47;;;;;;;;;3.50;2.00;;;;;4.44;92.97;99286.91;4985880;28;10984;-71
2021/12/08 08:13:16;;;;;;;;;0.25;0.25;;;;;4.43;92.71;99273.69;4985429;28;11057;-71
2021/12/08 08:15:48;;;;;;;;;1.75;1.75;;;;;4.43;92.14;99273.69;4982795;28;11131;-69
2021/12/08 08:18:19;;;;;;;;;2.00;1.00;;;;;4.46;92.00;99279.53;5009167;28;11097;-71
2021/12/08 08:20:51;;;;;;;;;2.00;1.00;;;;;4.46;92.11;99274.19;4982228;28;11199;-70
2021/12/08 08:23:23;;;;;;;;;2.00;2.00;;;;;4.44;91.97;99275.34;4984690;28;11014;-69
2021/12/08 08:25:52;;;;;;;;;1.75;1.75;;;;;4.51;91.78;99271.75;4984614;28;11048;-68
2021/12/08 08:28:19;;;;;;;;;4.00;2.00;;;;;4.53;91.51;99279.59;5000177;28;11256;-68
2021/12/08 08:31:02;;;;;;;;;5.00;2.00;;;;;4.55;91.51;99277.56;4989735;28;11079;-69
2021/12/08 08:33:34;;;;;;;;;2.00;2.00;;;;;4.53;91.19;99283.13;4994114;28;11172;-69
2021/12/08 08:36:07;;;;;;;;;4.25;2.00;;;;;4.52;91.47;99275.28;4995751;28;11089;-68
2021/12/08 08:38:56;;;;;;;;;2.00;1.50;;;;;4.49;91.24;99270.28;5007084;28;11013;-69
2021/12/08 08:41:26;;;;;;;;;0.75;0.75;;;;;4.52;91.21;99276.09;5007524;28;11114;-70
2021/12/08 08:43:56;;;;;;;;;4.00;2.00;;;;;4.55;91.41;99281.06;5001140;28;11012;-69
2021/12/08 08:46:35;;;;;;;;;2.50;1.00;;;;;4.54;90.92;99286.63;5008387;28;10999;-68
2021/12/08 08:49:06;;;;;;;;;2.50;2.00;;;;;4.62;90.97;99292.69;5009616;28;11000;-68
2021/12/08 08:51:38;;;;;;;;;1.75;1.75;;;;;4.67;90.93;99297.47;4996593;28;11150;-68
2021/12/08 08:54:11;;;;;;;;;1.75;1.25;;;;;4.71;91.00;99288.06;4993947;28;10986;-69
2021/12/08 08:56:42;;;;;;;;;1.00;1.00;;;;;4.73;90.49;99307.47;4993931;28;10910;-68
2021/12/08 08:59:14;;;;;;;;;1.25;1.25;;;;;4.76;90.42;99317.81;4998813;28;10934;-69
2021/12/08 09:01:47;;;;;;;;;1.00;1.00;;;;;4.82;89.91;99317.03;4992392;28;10938;-68
2021/12/08 09:04:22;;;;;;;;;2.00;1.25;;;;;4.93;89.53;99313.03;4992977;28;11038;-69
2021/12/08 09:06:52;;;;;;;;;1.00;1.00;;;;;4.91;89.07;99332.00;4987765;28;10887;-68
2021/12/08 09:09:27;;;;;;;;;1.75;1.75;;;;;4.88;89.27;99334.22;4988474;28;10859;-69
2021/12/08 09:12:04;;;;;;;;;2.25;1.00;;;;;4.87;89.52;99327.19;4988406;28;10770;-67
2021/12/08 09:14:36;;;;;;;;;1.25;1.25;;;;;4.85;89.83;99332.75;4988430;28;10827;-68
2021/12/08 09:17:14;;;;;;;;;1.75;1.75;;;;;4.85;89.68;99339.97;5003914;28;10917;-68
2021/12/08 09:19:51;;;;;;;;;4.00;4.00;;;;;4.87;89.42;99333.38;5011851;28;10916;-67
2021/12/08 09:22:27;;;;;;;;;4.50;2.00;;;;;4.91;89.49;99334.66;4990304;28;10829;-71
2021/12/08 09:25:01;;;;;;;;;1.75;1.75;;;;;4.93;89.24;99342.53;4987917;28;10883;-68
2021/12/08 09:27:37;;;;;;;;;3.25;1.00;;;;;4.96;89.65;99350.22;4990475;28;12459;-70
2021/12/08 09:30:12;;;;;;;;;1.25;1.25;;;;;4.97;89.93;99348.38;4985898;28;10737;-69
2021/12/08 09:32:46;;;;;;;;;0.50;0.00;;;;;4.98;89.76;99355.38;4988425;28;10750;-72
2021/12/08 09:35:28;;;;;;;;;5.00;3.00;;;;;5.02;89.56;99365.53;4998678;28;10922;-68
2021/12/08 09:38:10;;;;;;;;;1.00;1.00;;;;;5.02;89.59;99362.03;4991979;28;10783;-69
2021/12/08 09:40:43;;;;;;;;;1.25;1.25;;;;;5.27;91.12;99343.72;4997355;28;10769;-68
2021/12/08 09:43:17;;;;;;;;;1.00;1.00;;;;;5.09;89.20;99339.63;4991499;28;10841;-68
2021/12/08 09:45:50;;;;;;;;;1.00;0.00;;;;;5.12;89.33;99336.53;4998887;28;10681;-69
2021/12/08 09:48:17;;;;;;;;;1.50;1.50;;;;;5.13;88.83;99348.09;4972536;28;10710;-69
2021/12/08 09:50:45;;;;;;;;;1.50;1.25;;;;;5.12;88.98;99344.59;4987550;28;10754;-69
2021/12/08 09:53:13;;;;;;;;;2.00;2.00;;;;;5.16;88.89;99337.00;4972664;28;10755;-69
2021/12/08 09:55:40;;;;;;;;;2.50;2.50;;;;;5.19;88.43;99336.59;4972248;28;10673;-68
2021/12/08 09:58:07;;;;;;;;;1.00;1.00;;;;;5.17;88.39;99363.63;4970666;28;10746;-69
2021/12/08 10:00:39;;;;;;;;;4.50;2.75;;;;;5.21;88.50;99364.94;4974984;28;10708;-68
2021/12/08 10:03:08;;;;;;;;;1.00;0.25;;;;;5.25;88.76;99362.69;4992808;28;10750;-69
2021/12/08 10:05:36;;;;;;;;;3.50;1.25;;;;;5.28;88.85;99362.31;4992346;28;10821;-70
2021/12/08 10:08:04;;;;;;;;;2.25;2.25;;;;;5.27;88.39;99365.19;4991844;28;10685;-70
2021/12/08 10:10:31;;;;;;;;;0.25;0.25;;;;;5.48;88.32;99359.81;4992406;28;10889;-70
2021/12/08 10:12:58;;;;;;;;;5.25;2.00;;;;;5.38;87.14;99380.75;4992245;28;10656;-67
2021/12/08 10:15:26;;;;;;;;;1.50;1.00;;;;;5.41;87.67;99377.69;4983111;28;11360;-68
2021/12/08 10:17:55;;;;;;;;;2.00;2.00;;;;;5.36;86.91;99389.00;4972119;28;10769;-67
2021/12/08 10:20:24;;;;;;;;;2.25;1.00;;;;;5.34;86.91;99403.63;4972352;28;10929;-68
2021/12/08 10:23:17;;;;;;;;;5.00;2.00;;;;;5.36;87.37;99401.59;4972332;28;10875;-68
2021/12/08 10:25:56;;;;;;;;;2.00;1.00;;;;;5.36;86.96;99405.09;4972641;28;10963;-68
2021/12/08 10:28:33;;;;;;;;;1.00;1.00;;;;;5.39;87.30;99390.47;4971907;28;10756;-67
2021/12/08 10:31:06;;;;;;;;;4.50;2.50;;;;;5.40;88.16;99382.22;5005237;28;11537;-67
2021/12/08 10:36:45;;;;;;;;;2.00;2.00;;;;;5.39;87.30;99387.78;4991551;28;10777;-70
2021/12/08 10:39:18;;;;;;;;;2.00;2.00;;;;;5.35;87.32;99394.56;4990094;28;11642;-71
2021/12/08 10:41:53;;;;;;;;;7.50;5.00;;;;;5.35;87.19;99398.06;4991475;28;10952;-71
2021/12/08 10:44:53;;;;;;;;;3.25;1.00;;;;;5.37;87.47;99384.47;4992158;28;11014;-68
2021/12/08 10:47:36;;;;;;;;;2.50;2.50;;;;;5.33;87.25;99380.50;4988532;28;11564;-69
2021/12/08 10:55:32;;;;;;;;;8.00;6.00;;;;;5.37;86.70;99397.88;4973072;28;11086;-69
2021/12/08 10:57:59;;;;;;;;;5.50;4.00;;;;;5.38;86.28;99384.28;4971735;28;11205;-69
2021/12/08 11:00:28;;;;;;;;;6.00;5.00;;;;;5.44;86.51;99388.03;4985976;28;10989;-70
2021/12/08 11:03:07;;;;;;;;;9.00;6.00;;;;;5.45;86.10;99406.66;4971993;28;11864;-69
2021/12/08 11:05:39;;;;;;;;;2.00;2.00;;;;;5.45;85.49;99395.06;4973426;28;10987;-70
2021/12/08 11:08:37;;;;;;;;;5.50;4.75;;;;;5.47;84.94;99404.63;4986783;28;10919;-68
2021/12/08 11:11:20;;;;;;;;;2.00;2.00;;;;;5.53;85.42;99403.00;4971985;28;10942;-70
2021/12/08 11:13:49;;;;;;;;;6.00;6.00;;;;;5.60;85.62;99414.63;5000225;28;11750;-68
2021/12/08 11:16:17;;;;;;;;;5.00;5.00;;;;;5.65;85.18;99416.72;4990864;28;10847;-69
2021/12/08 11:18:56;;;;;;;;;4.50;4.50;;;;;5.67;84.33;99412.00;4989435;28;10971;-69
2021/12/08 11:21:30;;;;;;;;;2.50;2.50;;;;;5.70;84.92;99404.41;4990821;28;11852;-69
2021/12/08 11:24:34;;;;;;;;;3.00;3.00;;;;;5.77;84.57;99420.56;4989464;28;10845;-70
2021/12/08 11:27:09;;;;;;;;;6.00;6.00;;;;;5.78;84.18;99404.28;4990531;28;10982;-69
2021/12/08 11:29:39;;;;;;;;;6.00;4.00;;;;;5.98;83.50;99393.72;4989374;28;10839;-69
2021/12/08 11:32:12;;;;;;;;;4.75;1.50;;;;;6.03;82.77;99404.72;4989302;28;10903;-68
2021/12/08 11:34:45;;;;;;;;;4.50;4.00;;;;;5.99;82.50;99402.63;4990507;28;10637;-69
2021/12/08 11:37:25;;;;;;;;;4.25;1.00;;;;;6.16;82.21;99398.59;4989846;28;11626;-68
2021/12/08 11:39:55;;;;;;;;;3.25;3.25;;;;;6.26;81.87;99393.72;4990160;28;10688;-70
2021/12/08 11:42:32;;;;;;;;;1.00;1.00;;;;;6.34;81.02;99396.25;4988439;28;10613;-68
2021/12/08 11:45:01;;;;;;;;;1.25;1.25;;;;;6.42;80.92;99400.63;5005311;28;10740;-66
2021/12/08 11:47:33;;;;;;;;;4.00;4.00;;;;;6.43;80.30;99408.50;4989844;28;10821;-69
2021/12/08 11:50:08;;;;;;;;;2.00;2.00;;;;;6.38;80.23;99416.31;4990380;28;10613;-69
2021/12/08 11:52:35;;;;;;;;;5.25;3.00;;;;;6.37;80.26;99422.72;4979233;28;10524;-69
2021/12/08 11:55:17;;;;;;;;;4.00;3.00;;;;;6.29;80.36;99425.56;4969501;28;10680;-67
2021/12/08 11:57:48;;;;;;;;;0.50;0.50;;;;;6.33;81.08;99417.94;4985559;28;10645;-69
2021/12/08 12:00:22;;;;;;;;;1.00;1.00;;;;;6.33;80.48;99416.09;4970744;28;10326;-69
2021/12/08 12:03:00;;;;;;;;;2.50;2.50;;;;;6.33;80.41;99420.63;4985607;28;10462;-70
2021/12/08 12:05:34;;;;;;;;;1.00;1.00;;;;;6.28;81.23;99431.97;4969366;28;10597;-69
2021/12/08 12:08:03;;;;;;;;;2.50;2.50;;;;;6.31;80.90;99425.38;4985059;28;11174;-69
2021/12/08 12:10:34;;;;;;;;;2.00;2.00;;;;;6.27;80.35;99419.56;4970441;28;10646;-68
2021/12/08 12:13:08;;;;;;;;;2.00;2.00;;;;;6.29;80.50;99424.75;4968754;28;10484;-71
2021/12/08 12:15:36;;;;;;;;;2.00;0.25;;;;;6.58;81.23;99413.75;4970375;28;11507;-69
2021/12/08 12:18:04;;;;;;;;;3.00;2.00;;;;;6.42;80.65;99414.88;4970273;28;11390;-70
2021/12/08 12:20:43;;;;;;;;;4.25;3.50;;;;;6.38;80.59;99423.56;4975324;28;10600;-69
2021/12/08 12:23:44;;;;;;;;;4.00;1.75;;;;;6.35;80.49;99423.94;4990014;28;10715;-69
2021/12/08 12:26:30;;;;;;;;;3.00;2.00;;;;;6.36;80.46;99425.59;4988373;28;10548;-70
2021/12/08 12:29:14;;;;;;;;;4.75;3.50;;;;;6.40;80.67;99434.94;4989639;28;10606;-70
2021/12/08 12:31:49;;;;;;;;;3.50;2.25;;;;;6.41;80.36;99429.34;4989711;28;10614;-70
2021/12/08 12:34:25;;;;;;;;;7.00;3.00;;;;;6.48;80.63;99450.94;4986701;28;10710;-69
2021/12/08 12:36:52;;;;;;;;;3.00;3.00;;;;;6.49;80.42;99447.22;4970636;28;10598;-70
2021/12/08 12:39:25;;;;;;;;;1.75;1.75;;;;;6.51;80.13;99447.84;4969854;28;10594;-70
2021/12/08 12:42:02;;;;;;;;;6.25;4.50;;;;;6.55;80.60;99446.41;4986416;28;10482;-70
2021/12/08 12:44:31;;;;;;;;;7.00;3.00;;;;;6.52;80.10;99446.81;4989571;28;10545;-69
2021/12/08 12:47:03;;;;;;;;;5.00;5.00;;;;;6.50;79.76;99454.25;4989599;28;10816;-68
2021/12/08 12:49:31;;;;;;;;;4.25;2.00;;;;;6.47;80.28;99442.03;4989757;28;10818;-68
2021/12/08 12:52:06;;;;;;;;;4.50;4.50;;;;;6.52;80.48;99446.81;4988511;28;10538;-70